Time;durP1;ratioP1;P1;durP2;ratioP2;P2;SDS_P1;SDS_P2;PMS_P1;PMS_P2;Temp;Humidity;BMP_temperature;BMP_pressure;BME280_temperature;BME280_humidity;BME280_pressure;Samples;Min_cycle;Max_cycle;Signal;HPM_P1;HPM_P2
2021/08/27 00:00:46;;;;;;;7.80;1.75;;;14.70;99.90;;;;;;5010359;28;25046;-74
2021/08/27 00:03:12;;;;;;;8.73;2.00;;;14.70;99.90;;;;;;5008032;28;25068;-76
2021/08/27 00:05:37;;;;;;;9.52;1.77;;;14.70;99.90;;;;;;5008476;28;25092;-74
2021/08/27 00:08:03;;;;;;;5.85;1.40;;;14.70;99.90;;;;;;5009018;28;25171;-74
2021/08/27 00:10:30;;;;;;;9.70;1.75;;;14.70;99.90;;;;;;5021469;28;25097;-77
2021/08/27 00:12:55;;;;;;;11.27;1.85;;;14.60;99.90;;;;;;5028469;28;25056;-75
2021/08/27 00:15:51;;;;;;;8.80;1.95;;;14.60;99.90;;;;;;5021753;28;25120;-76
2021/08/27 00:18:17;;;;;;;10.38;1.65;;;14.60;99.90;;;;;;5006071;28;25136;-77
2021/08/27 00:20:43;;;;;;;11.65;2.90;;;14.60;99.90;;;;;;5005530;28;25066;-76
2021/08/27 00:23:08;;;;;;;9.40;1.95;;;14.60;99.90;;;;;;5012764;28;25063;-76
2021/08/27 00:25:34;;;;;;;10.07;2.08;;;14.60;99.90;;;;;;5011888;28;25035;-77
2021/08/27 00:28:00;;;;;;;6.45;1.77;;;14.50;99.90;;;;;;5010227;28;25128;-76
2021/08/27 00:30:25;;;;;;;6.10;1.30;;;14.50;99.90;;;;;;4990524;28;25114;-75
2021/08/27 00:32:52;;;;;;;17.65;1.85;;;14.50;99.90;;;;;;5010155;28;25066;-75
2021/08/27 00:35:18;;;;;;;11.00;1.88;;;14.50;99.90;;;;;;5009236;28;25104;-76
2021/08/27 00:37:43;;;;;;;20.40;2.47;;;14.50;99.90;;;;;;5007301;28;25109;-75
2021/08/27 00:40:09;;;;;;;12.60;2.50;;;14.50;99.90;;;;;;5008768;28;25094;-75
2021/08/27 00:42:35;;;;;;;9.27;1.70;;;14.50;99.90;;;;;;5002817;28;25096;-77
2021/08/27 00:45:00;;;;;;;10.57;2.05;;;14.50;99.90;;;;;;5007650;28;25060;-76
2021/08/27 00:47:27;;;;;;;7.90;1.60;;;14.50;99.90;;;;;;5003634;28;25137;-75
2021/08/27 00:49:52;;;;;;;7.70;2.10;;;14.50;99.90;;;;;;5006683;28;25095;-75
2021/08/27 00:52:19;;;;;;;10.27;1.83;;;14.50;99.90;;;;;;5008705;28;25101;-77
2021/08/27 00:54:49;;;;;;;7.55;1.45;;;14.50;99.90;;;;;;5008481;28;25082;-77
2021/08/27 00:57:15;;;;;;;10.68;1.77;;;14.50;99.90;;;;;;5007339;28;25061;-74
2021/08/27 00:59:41;;;;;;;7.65;1.88;;;14.50;99.90;;;;;;5008727;28;25153;-77
2021/08/27 01:02:07;;;;;;;8.45;1.85;;;14.50;99.90;;;;;;5010825;28;25417;-76
2021/08/27 01:04:39;;;;;;;6.22;1.60;;;14.50;99.90;;;;;;5010064;28;25070;-76
2021/08/27 01:07:17;;;;;;;6.40;1.60;;;14.50;99.90;;;;;;5011125;28;25068;-75
2021/08/27 01:10:10;;;;;;;16.10;2.00;;;14.40;99.90;;;;;;5009748;28;25110;-76
2021/08/27 01:12:50;;;;;;;11.02;1.60;;;14.40;99.90;;;;;;5000844;28;25099;-76
2021/08/27 01:15:30;;;;;;;7.47;1.95;;;14.40;99.90;;;;;;5005891;28;25053;-77
2021/08/27 01:18:04;;;;;;;9.52;1.75;;;14.40;99.90;;;;;;5007002;28;25098;-76
2021/08/27 01:20:55;;;;;;;10.18;2.20;;;14.40;99.90;;;;;;4988646;28;25097;-76
2021/08/27 01:23:33;;;;;;;7.28;1.55;;;14.30;99.90;;;;;;5010352;28;25087;-76
2021/08/27 01:26:02;;;;;;;11.48;1.92;;;14.30;99.90;;;;;;5011002;28;25104;-76
2021/08/27 01:28:29;;;;;;;5.57;1.48;;;14.30;99.90;;;;;;5008004;28;25135;-76
2021/08/27 01:31:05;;;;;;;12.35;2.65;;;14.30;99.90;;;;;;5009776;28;25115;-75
2021/08/27 01:33:34;;;;;;;8.40;1.70;;;14.30;99.90;;;;;;5009210;28;25131;-76
2021/08/27 01:36:03;;;;;;;9.50;1.85;;;14.30;99.90;;;;;;5010783;28;25073;-76
2021/08/27 01:38:33;;;;;;;8.80;2.03;;;14.30;99.90;;;;;;5009354;28;25143;-76
2021/08/27 01:41:00;;;;;;;13.73;1.85;;;14.20;99.90;;;;;;5008498;28;25078;-77
2021/08/27 01:43:28;;;;;;;10.80;1.75;;;14.20;99.90;;;;;;4990551;28;25067;-76
2021/08/27 01:45:58;;;;;;;8.80;2.22;;;14.20;99.90;;;;;;5008709;28;25082;-77
2021/08/27 01:48:27;;;;;;;8.70;1.40;;;14.20;99.90;;;;;;5009280;28;25048;-77
2021/08/27 01:50:54;;;;;;;6.97;1.80;;;14.20;99.90;;;;;;5006302;28;25051;-76
2021/08/27 01:53:28;;;;;;;5.93;1.55;;;14.20;99.90;;;;;;5009298;28;25107;-77
2021/08/27 01:55:57;;;;;;;9.10;1.83;;;14.20;99.90;;;;;;5007894;28;25086;-77
2021/08/27 01:58:25;;;;;;;7.20;2.05;;;14.20;99.90;;;;;;5009100;28;25082;-76
2021/08/27 02:00:52;;;;;;;11.20;2.20;;;14.20;99.90;;;;;;5008589;28;25068;-77
2021/08/27 02:03:19;;;;;;;8.70;1.33;;;14.10;99.90;;;;;;5008406;28;25099;-76
2021/08/27 02:05:45;;;;;;;12.27;1.92;;;14.20;99.90;;;;;;5009019;28;25072;-75
2021/08/27 02:08:12;;;;;;;11.18;2.10;;;14.10;99.90;;;;;;5009119;28;25110;-74
2021/08/27 02:10:38;;;;;;;12.00;2.58;;;14.10;99.90;;;;;;5008816;28;25148;-75
2021/08/27 02:13:05;;;;;;;8.05;2.25;;;14.10;99.90;;;;;;4991390;28;25048;-75
2021/08/27 02:15:31;;;;;;;10.05;2.33;;;14.00;99.90;;;;;;5009853;28;25057;-77
2021/08/27 02:17:56;;;;;;;13.20;2.47;;;14.10;99.90;;;;;;4998637;28;25050;-75
2021/08/27 02:20:22;;;;;;;13.13;3.05;;;14.10;99.90;;;;;;5013260;28;25066;-75
2021/08/27 02:22:52;;;;;;;9.10;3.35;;;14.10;99.90;;;;;;4994150;28;25056;-75
2021/08/27 02:25:25;;;;;;;13.07;3.92;;;14.10;99.90;;;;;;5013516;28;25153;-76
2021/08/27 02:27:52;;;;;;;10.45;3.03;;;14.10;99.90;;;;;;5012011;28;25057;-77
2021/08/27 02:30:20;;;;;;;9.00;2.10;;;14.10;99.90;;;;;;5013137;28;25103;-77
2021/08/27 02:32:48;;;;;;;15.13;2.33;;;14.10;99.90;;;;;;5011609;28;25077;-76
2021/08/27 02:35:14;;;;;;;11.43;2.40;;;14.10;99.90;;;;;;5012910;28;25083;-76
2021/08/27 02:37:42;;;;;;;11.82;2.60;;;14.10;99.90;;;;;;5011772;28;25152;-75
2021/08/27 02:40:09;;;;;;;10.80;2.20;;;14.00;99.90;;;;;;5011459;28;25152;-76
2021/08/27 02:42:35;;;;;;;12.55;2.63;;;14.10;99.90;;;;;;5008163;28;25095;-77
2021/08/27 02:45:03;;;;;;;11.40;2.03;;;14.00;99.90;;;;;;5012233;28;25072;-76
2021/08/27 02:47:28;;;;;;;6.38;1.80;;;14.00;99.90;;;;;;5012057;28;25086;-77
2021/08/27 02:49:54;;;;;;;10.55;3.20;;;14.00;99.90;;;;;;5012868;28;25100;-76
2021/08/27 02:52:29;;;;;;;9.30;2.08;;;14.00;99.90;;;;;;5008219;28;25158;-77
2021/08/27 02:55:04;;;;;;;14.68;2.00;;;14.00;99.90;;;;;;5012303;28;25049;-76
2021/08/27 02:57:55;;;;;;;7.68;2.00;;;14.00;99.90;;;;;;5012557;28;25087;-76
2021/08/27 03:00:21;;;;;;;16.40;2.20;;;14.00;99.90;;;;;;5007897;28;25072;-75
2021/08/27 03:02:48;;;;;;;12.75;2.40;;;14.00;99.90;;;;;;5004253;28;25071;-77
2021/08/27 03:05:41;;;;;;;6.10;1.83;;;14.00;99.90;;;;;;5016560;28;25053;-76
2021/08/27 03:08:13;;;;;;;7.18;2.30;;;13.90;99.90;;;;;;5023105;28;25059;-76
2021/08/27 03:11:21;;;;;;;12.07;2.92;;;14.00;99.90;;;;;;5022188;28;25087;-76
2021/08/27 03:14:11;;;;;;;12.45;1.85;;;14.00;99.90;;;;;;4961914;29;25108;-76
2021/08/27 03:16:41;;;;;;;11.52;2.65;;;14.00;99.90;;;;;;4953118;29;25175;-75
2021/08/27 03:19:26;;;;;;;8.70;1.80;;;14.10;99.90;;;;;;4985669;28;25159;-77
2021/08/27 03:22:04;;;;;;;8.48;1.92;;;14.10;99.90;;;;;;5008421;28;25063;-78
2021/08/27 03:24:34;;;;;;;8.30;1.73;;;14.00;99.90;;;;;;5011697;28;25056;-77
2021/08/27 03:27:03;;;;;;;10.20;2.65;;;14.00;99.90;;;;;;4998673;28;25063;-76
2021/08/27 03:29:46;;;;;;;14.70;2.53;;;14.10;99.90;;;;;;5003821;28;25061;-77
2021/08/27 03:32:13;;;;;;;8.73;1.90;;;14.00;99.90;;;;;;5009197;28;25157;-76
2021/08/27 03:34:41;;;;;;;8.10;2.10;;;14.00;99.90;;;;;;5009776;28;25092;-75
2021/08/27 03:37:07;;;;;;;10.18;2.25;;;14.00;99.90;;;;;;5008904;28;25050;-76
2021/08/27 03:39:36;;;;;;;7.88;2.33;;;14.00;99.90;;;;;;5010283;28;25110;-77
2021/08/27 03:42:03;;;;;;;9.52;2.10;;;14.00;99.90;;;;;;5008337;28;25086;-76
2021/08/27 03:44:31;;;;;;;9.35;1.80;;;14.00;99.90;;;;;;4990240;28;25068;-77
2021/08/27 03:46:57;;;;;;;8.30;1.88;;;14.00;99.90;;;;;;5005640;28;25069;-77
2021/08/27 03:49:25;;;;;;;9.38;2.20;;;14.00;99.90;;;;;;4990425;28;25167;-75
2021/08/27 03:51:51;;;;;;;11.27;1.73;;;14.00;99.90;;;;;;5009483;28;25287;-74
2021/08/27 03:54:18;;;;;;;10.45;2.00;;;14.00;99.90;;;;;;5008915;28;25079;-76
2021/08/27 03:56:46;;;;;;;3.95;1.52;;;14.00;99.90;;;;;;5008592;28;25066;-75
2021/08/27 03:59:13;;;;;;;7.25;2.42;;;14.00;99.90;;;;;;5008523;28;25055;-76
2021/08/27 04:01:38;;;;;;;7.40;1.80;;;14.00;99.90;;;;;;5007922;28;25065;-76
2021/08/27 04:04:06;;;;;;;7.57;1.70;;;14.00;99.90;;;;;;5008111;28;25072;-77
2021/08/27 04:06:33;;;;;;;4.63;2.10;;;14.00;99.90;;;;;;5008592;28;25065;-78
2021/08/27 04:08:58;;;;;;;6.72;1.83;;;13.90;99.90;;;;;;5006888;28;25060;-77
2021/08/27 04:11:24;;;;;;;11.50;2.60;;;14.00;99.90;;;;;;4990312;28;25076;-75
2021/08/27 04:13:50;;;;;;;11.23;2.03;;;14.00;99.90;;;;;;5008056;28;25066;-76
2021/08/27 04:16:15;;;;;;;9.60;2.30;;;13.90;99.90;;;;;;5008395;28;25070;-76
2021/08/27 04:18:41;;;;;;;8.88;1.73;;;13.90;99.90;;;;;;5008538;28;25079;-76
2021/08/27 04:21:07;;;;;;;5.65;1.60;;;13.90;99.90;;;;;;5006918;28;25080;-76
2021/08/27 04:23:32;;;;;;;12.07;2.08;;;14.00;99.90;;;;;;5007650;28;25088;-75
2021/08/27 04:25:58;;;;;;;11.68;2.00;;;14.00;99.90;;;;;;5008486;28;25062;-75
2021/08/27 04:28:24;;;;;;;7.20;1.80;;;13.90;99.90;;;;;;5007845;28;25065;-77
2021/08/27 04:30:50;;;;;;;7.70;1.70;;;13.90;99.90;;;;;;5008875;28;25104;-77
2021/08/27 04:33:16;;;;;;;11.00;1.98;;;13.90;99.90;;;;;;5009333;28;25088;-74
2021/08/27 04:35:42;;;;;;;8.20;1.73;;;13.90;99.90;;;;;;5009592;28;25091;-77
2021/08/27 04:38:07;;;;;;;9.27;2.63;;;13.90;99.90;;;;;;5008989;28;25064;-75
2021/08/27 04:40:33;;;;;;;6.60;1.58;;;13.90;99.90;;;;;;5006518;28;25152;-75
2021/08/27 04:42:59;;;;;;;10.65;3.05;;;13.90;99.90;;;;;;5007950;28;25067;-76
2021/08/27 04:45:25;;;;;;;11.40;2.00;;;13.90;99.90;;;;;;5007343;28;25144;-77
2021/08/27 04:47:50;;;;;;;7.07;1.85;;;13.90;99.90;;;;;;5008138;28;25125;-73
2021/08/27 04:50:16;;;;;;;13.60;1.90;;;13.90;99.90;;;;;;5008282;28;25109;-75
2021/08/27 04:52:41;;;;;;;8.90;1.80;;;13.90;99.90;;;;;;5006957;28;25062;-76
2021/08/27 04:55:08;;;;;;;8.70;1.98;;;13.90;99.90;;;;;;5007417;28;25073;-74
2021/08/27 04:57:37;;;;;;;6.93;1.75;;;13.80;99.90;;;;;;5006114;28;25058;-74
2021/08/27 05:00:07;;;;;;;11.52;1.92;;;13.90;99.90;;;;;;5008621;28;25149;-76
2021/08/27 05:02:33;;;;;;;8.18;1.75;;;13.90;99.90;;;;;;5006690;28;25108;-76
2021/08/27 05:04:58;;;;;;;8.95;1.73;;;13.90;99.90;;;;;;5007886;28;25120;-76
2021/08/27 05:07:24;;;;;;;9.93;2.00;;;13.90;99.90;;;;;;5006455;28;25063;-74
2021/08/27 05:09:49;;;;;;;6.90;1.50;;;13.80;99.90;;;;;;5007175;28;25048;-75
2021/08/27 05:12:15;;;;;;;11.45;1.83;;;13.80;99.90;;;;;;5006870;28;25069;-75
2021/08/27 05:14:41;;;;;;;7.93;1.80;;;13.80;99.90;;;;;;5008303;28;25071;-76
2021/08/27 05:17:06;;;;;;;7.72;1.50;;;13.80;99.90;;;;;;5007321;28;25067;-76
2021/08/27 05:19:32;;;;;;;9.77;2.10;;;13.80;99.90;;;;;;5007094;28;25074;-76
2021/08/27 05:21:58;;;;;;;6.70;1.67;;;13.70;99.90;;;;;;5008426;28;25083;-76
2021/08/27 05:24:24;;;;;;;13.48;2.20;;;13.70;99.90;;;;;;5004389;28;25072;-75
2021/08/27 05:26:50;;;;;;;12.20;1.88;;;13.70;99.90;;;;;;5005152;28;25062;-78
2021/08/27 05:29:15;;;;;;;7.38;2.60;;;13.60;99.90;;;;;;5006323;28;25168;-75
2021/08/27 05:31:41;;;;;;;8.23;2.28;;;13.70;99.90;;;;;;5006875;28;25072;-77
2021/08/27 05:34:07;;;;;;;10.82;2.65;;;13.70;99.90;;;;;;5006782;28;25498;-75
2021/08/27 05:36:33;;;;;;;9.00;2.28;;;13.70;99.90;;;;;;5006607;28;25079;-73
2021/08/27 05:38:58;;;;;;;8.43;1.83;;;13.80;99.90;;;;;;5005943;28;25069;-77
2021/08/27 05:41:24;;;;;;;8.35;1.70;;;13.80;99.90;;;;;;5008258;28;25182;-74
2021/08/27 05:43:49;;;;;;;14.85;3.55;;;13.80;99.90;;;;;;5006634;28;25151;-76
2021/08/27 05:46:15;;;;;;;8.20;1.80;;;13.80;99.90;;;;;;5010570;28;25066;-74
2021/08/27 05:48:41;;;;;;;17.05;2.15;;;13.80;99.90;;;;;;5017183;28;25075;-74
2021/08/27 05:51:06;;;;;;;8.95;2.13;;;13.90;99.90;;;;;;5033285;28;25083;-75
2021/08/27 05:53:32;;;;;;;6.97;1.77;;;13.90;99.90;;;;;;5034084;28;25060;-75
2021/08/27 05:55:58;;;;;;;10.40;1.95;;;14.00;99.90;;;;;;5034295;28;25077;-75
2021/08/27 05:58:23;;;;;;;16.45;2.15;;;14.10;99.90;;;;;;5012080;28;25081;-76
2021/08/27 06:00:50;;;;;;;7.28;1.80;;;14.10;99.90;;;;;;5010783;28;25073;-73
2021/08/27 06:03:16;;;;;;;10.85;2.85;;;14.20;99.90;;;;;;5012070;28;25156;-77
2021/08/27 06:05:41;;;;;;;9.30;1.80;;;14.30;99.90;;;;;;5011040;28;25073;-75
2021/08/27 06:08:07;;;;;;;11.07;2.33;;;14.40;99.90;;;;;;5023495;28;25099;-76
2021/08/27 06:10:33;;;;;;;5.05;1.63;;;14.50;99.90;;;;;;5026633;28;25070;-76
2021/08/27 06:12:58;;;;;;;5.68;1.65;;;14.50;99.90;;;;;;5024705;28;25069;-77
2021/08/27 06:15:24;;;;;;;5.63;1.70;;;14.50;99.90;;;;;;5018452;28;25059;-77
2021/08/27 06:17:49;;;;;;;4.85;1.98;;;14.50;99.90;;;;;;5012635;28;25087;-77
2021/08/27 06:20:15;;;;;;;6.60;1.88;;;14.60;99.90;;;;;;5010683;28;25092;-76
2021/08/27 06:22:41;;;;;;;9.18;2.00;;;14.60;99.90;;;;;;5012093;28;25097;-75
2021/08/27 06:25:08;;;;;;;7.47;1.92;;;14.70;99.90;;;;;;5011466;28;25133;-77
2021/08/27 06:27:34;;;;;;;8.07;2.05;;;14.80;99.90;;;;;;5011360;28;25133;-77
2021/08/27 06:30:00;;;;;;;7.93;1.63;;;14.80;99.90;;;;;;5012486;28;25077;-76
2021/08/27 06:32:27;;;;;;;10.32;1.80;;;14.80;99.90;;;;;;5013161;28;25108;-76
2021/08/27 06:34:55;;;;;;;9.25;1.88;;;14.90;99.90;;;;;;5011608;28;25097;-75
2021/08/27 06:37:21;;;;;;;7.35;1.95;;;15.00;99.90;;;;;;5012652;28;25061;-75
2021/08/27 06:39:48;;;;;;;9.45;2.25;;;15.00;99.90;;;;;;5010611;28;25073;-77
2021/08/27 06:42:13;;;;;;;4.22;1.70;;;15.10;99.90;;;;;;4995034;28;25110;-76
2021/08/27 06:44:39;;;;;;;8.35;1.90;;;15.10;99.90;;;;;;5011446;28;25102;-74
2021/08/27 06:47:05;;;;;;;7.57;1.70;;;15.20;99.90;;;;;;5011880;28;25069;-75
2021/08/27 06:49:30;;;;;;;10.77;2.05;;;15.30;99.90;;;;;;5012082;28;25109;-76
2021/08/27 06:51:56;;;;;;;4.18;1.77;;;15.30;99.90;;;;;;5010827;28;25054;-75
2021/08/27 06:54:21;;;;;;;6.43;1.88;;;15.30;99.90;;;;;;5007510;28;25159;-76
2021/08/27 06:56:47;;;;;;;6.70;2.15;;;15.40;99.90;;;;;;5006199;28;25056;-75
2021/08/27 06:59:13;;;;;;;5.25;1.55;;;15.50;99.90;;;;;;5010488;28;25083;-78
2021/08/27 07:01:38;;;;;;;12.18;2.67;;;15.50;99.90;;;;;;5011021;28;25094;-78
2021/08/27 07:04:05;;;;;;;7.53;2.00;;;15.60;99.90;;;;;;5010671;28;25169;-77
2021/08/27 07:06:30;;;;;;;9.15;1.83;;;15.70;99.90;;;;;;5013079;28;25154;-78
2021/08/27 07:08:57;;;;;;;7.30;1.70;;;15.70;99.90;;;;;;5012960;28;25061;-77
2021/08/27 07:11:22;;;;;;;6.13;1.55;;;15.80;99.90;;;;;;5011467;28;25098;-77
2021/08/27 07:13:48;;;;;;;6.57;1.48;;;15.80;99.90;;;;;;5011946;28;25102;-76
2021/08/27 07:16:14;;;;;;;4.40;1.15;;;15.90;99.90;;;;;;5009738;28;25119;-76
2021/08/27 07:18:41;;;;;;;9.32;1.55;;;16.00;99.90;;;;;;5010900;28;25071;-76
2021/08/27 07:21:08;;;;;;;10.18;1.75;;;15.90;99.90;;;;;;5010574;28;25067;-78
2021/08/27 07:23:33;;;;;;;14.75;2.10;;;16.00;99.90;;;;;;5011137;28;25057;-79
2021/08/27 07:25:59;;;;;;;4.32;2.03;;;15.90;99.90;;;;;;5009634;28;25064;-74
2021/08/27 07:28:25;;;;;;;13.07;2.05;;;16.00;99.90;;;;;;5009525;28;25089;-76
2021/08/27 07:30:51;;;;;;;6.97;1.40;;;16.00;99.90;;;;;;5012166;28;25066;-77
2021/08/27 07:33:17;;;;;;;8.98;1.77;;;16.10;99.90;;;;;;5011171;28;25067;-77
2021/08/27 07:35:45;;;;;;;12.15;2.20;;;16.10;99.90;;;;;;5011901;28;25064;-77
2021/08/27 07:38:11;;;;;;;11.60;1.92;;;16.20;99.90;;;;;;5012316;28;25084;-75
2021/08/27 07:40:37;;;;;;;7.47;2.40;;;16.30;99.90;;;;;;5013443;28;25084;-78
2021/08/27 07:43:02;;;;;;;5.13;1.75;;;16.30;99.90;;;;;;5014664;28;25074;-77
2021/08/27 07:45:29;;;;;;;7.97;1.88;;;16.30;99.90;;;;;;5013092;28;25091;-77
2021/08/27 07:47:54;;;;;;;10.30;1.75;;;16.40;99.90;;;;;;5013693;28;25062;-75
2021/08/27 07:50:20;;;;;;;9.88;2.13;;;16.40;99.90;;;;;;5013515;28;25060;-75
2021/08/27 07:52:46;;;;;;;4.85;1.60;;;16.40;99.90;;;;;;5007769;28;25132;-79
2021/08/27 07:55:12;;;;;;;6.90;2.33;;;16.50;99.90;;;;;;5015460;28;25122;-76
2021/08/27 07:57:42;;;;;;;7.55;1.90;;;16.50;99.90;;;;;;5013749;28;25056;-78
2021/08/27 08:00:10;;;;;;;7.47;1.58;;;16.70;99.90;;;;;;5012521;28;25054;-75
2021/08/27 08:02:37;;;;;;;5.65;1.80;;;16.90;99.90;;;;;;5012172;28;25070;-78
2021/08/27 08:05:03;;;;;;;12.18;1.80;;;17.00;99.90;;;;;;5012357;28;25078;-77
2021/08/27 08:07:28;;;;;;;8.27;1.77;;;17.00;99.90;;;;;;5011717;28;25068;-75
2021/08/27 08:09:54;;;;;;;7.22;2.05;;;17.00;99.90;;;;;;5013089;28;25093;-77
2021/08/27 08:12:20;;;;;;;5.93;1.85;;;17.00;99.90;;;;;;5011878;28;25124;-78
2021/08/27 08:14:45;;;;;;;5.97;1.90;;;17.20;99.90;;;;;;5013442;28;25063;-76
2021/08/27 08:17:11;;;;;;;4.85;1.80;;;17.30;99.90;;;;;;5012211;28;25104;-77
2021/08/27 08:19:37;;;;;;;8.63;2.03;;;17.40;99.90;;;;;;5011730;28;25067;-78
2021/08/27 08:22:03;;;;;;;9.45;2.22;;;17.40;99.90;;;;;;5011207;28;25098;-76
2021/08/27 08:24:29;;;;;;;10.00;2.50;;;17.50;99.90;;;;;;5011551;28;25069;-76
2021/08/27 08:26:56;;;;;;;14.60;2.33;;;17.60;99.90;;;;;;5009845;28;25059;-77
2021/08/27 08:29:22;;;;;;;17.08;2.75;;;17.80;99.90;;;;;;5007293;28;25140;-77
2021/08/27 08:31:48;;;;;;;9.60;2.13;;;17.90;99.90;;;;;;5012348;28;25072;-76
2021/08/27 08:34:13;;;;;;;14.48;2.97;;;17.90;99.90;;;;;;5013886;28;25051;-77
2021/08/27 08:36:39;;;;;;;8.35;2.05;;;17.80;99.90;;;;;;5013513;28;25141;-78
2021/08/27 08:39:07;;;;;;;8.57;2.45;;;17.80;99.90;;;;;;5013115;28;25065;-77
2021/08/27 08:41:33;;;;;;;14.73;2.45;;;17.80;99.90;;;;;;5012741;28;25154;-75
2021/08/27 08:44:00;;;;;;;11.75;3.13;;;18.00;99.90;;;;;;5012453;28;25100;-75
2021/08/27 08:46:26;;;;;;;10.45;2.13;;;18.00;99.90;;;;;;5010911;28;25140;-77
2021/08/27 08:48:52;;;;;;;9.73;3.15;;;18.00;99.90;;;;;;5011570;28;25058;-77
2021/08/27 08:51:22;;;;;;;12.18;3.05;;;18.20;99.90;;;;;;4992419;28;25071;-75
2021/08/27 08:53:49;;;;;;;10.02;2.60;;;18.20;99.90;;;;;;5010271;28;25152;-76
2021/08/27 08:56:16;;;;;;;12.63;2.90;;;18.40;99.90;;;;;;4999605;28;25049;-76
2021/08/27 08:58:42;;;;;;;10.35;2.78;;;18.50;99.90;;;;;;4995364;28;25062;-74
2021/08/27 09:01:12;;;;;;;10.50;2.42;;;18.40;99.90;;;;;;5012490;28;25069;-75
2021/08/27 09:03:38;;;;;;;5.35;2.13;;;18.00;99.90;;;;;;5013795;28;25149;-74
2021/08/27 09:06:05;;;;;;;9.25;2.80;;;17.90;99.90;;;;;;5013834;28;25080;-75
2021/08/27 09:08:33;;;;;;;10.68;2.83;;;18.00;99.90;;;;;;5022290;28;25063;-74
2021/08/27 09:11:00;;;;;;;7.18;2.63;;;18.00;99.90;;;;;;5027155;28;25059;-75
2021/08/27 09:13:31;;;;;;;10.00;2.63;;;17.90;99.90;;;;;;5008715;28;25072;-73
2021/08/27 09:16:09;;;;;;;8.65;3.03;;;17.90;99.90;;;;;;5018868;28;25058;-75
2021/08/27 09:18:42;;;;;;;8.18;2.95;;;17.80;99.90;;;;;;5012016;28;25075;-77
2021/08/27 09:21:27;;;;;;;8.38;3.00;;;18.00;99.90;;;;;;5009311;28;25135;-75
2021/08/27 09:24:12;;;;;;;9.85;2.70;;;18.30;99.90;;;;;;5010714;28;25061;-75
2021/08/27 09:26:38;;;;;;;9.52;2.65;;;18.30;99.90;;;;;;5010507;28;25096;-75
2021/08/27 09:29:05;;;;;;;8.40;2.47;;;18.50;99.90;;;;;;5014423;28;25048;-74
2021/08/27 09:31:32;;;;;;;7.07;2.45;;;18.40;99.90;;;;;;5016589;28;25062;-74
2021/08/27 09:33:59;;;;;;;8.20;2.28;;;18.40;99.90;;;;;;5015399;28;25060;-73
2021/08/27 09:36:25;;;;;;;5.38;2.33;;;18.50;99.90;;;;;;5015873;28;25135;-74
2021/08/27 09:39:08;;;;;;;9.85;3.25;;;18.60;99.90;;;;;;5012906;28;25057;-77
2021/08/27 09:41:34;;;;;;;3.90;2.58;;;18.70;99.90;;;;;;5009864;28;25077;-74
2021/08/27 09:44:01;;;;;;;12.95;3.30;;;18.40;99.90;;;;;;5009445;28;25063;-76
2021/08/27 09:46:45;;;;;;;11.15;2.70;;;18.30;99.90;;;;;;5008861;28;25130;-75
2021/08/27 09:49:31;;;;;;;15.63;2.67;;;18.50;99.90;;;;;;5000189;28;25073;-75
2021/08/27 09:51:58;;;;;;;9.25;3.25;;;18.80;99.90;;;;;;5008000;28;25093;-74
2021/08/27 09:54:35;;;;;;;8.27;3.15;;;18.70;99.90;;;;;;5009058;28;25074;-76
2021/08/27 09:57:03;;;;;;;13.77;3.05;;;18.80;99.90;;;;;;5007068;28;25056;-72
2021/08/27 09:59:31;;;;;;;15.05;3.72;;;18.60;99.90;;;;;;5009081;28;25098;-75
2021/08/27 10:02:00;;;;;;;12.30;3.45;;;18.70;99.90;;;;;;5008682;28;25070;-76
2021/08/27 10:04:25;;;;;;;8.43;2.65;;;18.80;99.90;;;;;;5009519;28;25080;-76
2021/08/27 10:06:51;;;;;;;10.23;3.42;;;18.70;99.90;;;;;;5010608;28;25077;-76
2021/08/27 10:09:16;;;;;;;8.23;2.70;;;18.40;99.90;;;;;;5009647;28;25077;-75
2021/08/27 10:11:42;;;;;;;9.55;2.97;;;18.40;99.90;;;;;;5009152;28;25072;-75
2021/08/27 10:14:08;;;;;;;7.15;3.03;;;18.50;99.90;;;;;;5008475;28;25106;-76
2021/08/27 10:16:33;;;;;;;10.57;3.05;;;18.40;99.90;;;;;;5009965;28;25055;-75
2021/08/27 10:19:00;;;;;;;10.93;2.80;;;18.60;99.90;;;;;;5008674;28;25063;-77
2021/08/27 10:21:26;;;;;;;13.02;3.70;;;18.60;99.90;;;;;;5008316;28;25079;-76
2021/08/27 10:23:52;;;;;;;6.93;2.92;;;18.50;99.90;;;;;;5008681;28;25062;-76
2021/08/27 10:26:20;;;;;;;8.68;2.83;;;18.70;99.90;;;;;;5008713;28;25165;-76
2021/08/27 10:28:48;;;;;;;9.55;3.38;;;18.90;99.90;;;;;;5007944;28;25155;-76
2021/08/27 10:31:15;;;;;;;12.27;2.80;;;18.80;99.90;;;;;;5008585;28;25106;-74
2021/08/27 10:33:41;;;;;;;10.20;3.00;;;19.00;99.90;;;;;;5008364;28;25099;-75
2021/08/27 10:36:30;;;;;;;8.10;2.80;;;18.90;99.90;;;;;;5008617;28;25057;-75
2021/08/27 10:38:57;;;;;;;12.13;2.58;;;18.80;99.90;;;;;;5002223;28;25105;-75
2021/08/27 10:41:36;;;;;;;8.75;2.60;;;18.70;99.90;;;;;;5011688;28;25060;-74
2021/08/27 10:44:05;;;;;;;13.00;3.25;;;18.50;99.90;;;;;;5002642;28;25074;-76
2021/08/27 10:47:05;;;;;;;5.03;2.53;;;18.50;99.90;;;;;;4993751;28;25151;-78
2021/08/27 10:49:44;;;;;;;11.95;2.85;;;18.80;99.90;;;;;;5006059;28;25066;-77
2021/08/27 10:52:42;;;;;;;20.73;3.10;;;18.90;99.90;;;;;;5009618;28;25103;-76
2021/08/27 10:55:14;;;;;;;15.95;4.50;;;19.10;99.90;;;;;;4967442;28;25071;-74
2021/08/27 10:57:54;;;;;;;12.00;3.20;;;19.10;99.90;;;;;;4999003;28;25139;-77
2021/08/27 11:00:30;;;;;;;6.88;2.75;;;19.20;99.90;;;;;;5011795;28;25071;-76
2021/08/27 11:02:56;;;;;;;5.25;2.53;;;19.40;99.90;;;;;;5000551;28;25056;-77
2021/08/27 11:05:39;;;;;;;9.88;2.50;;;19.30;99.90;;;;;;5012414;28;25082;-76
2021/08/27 11:08:13;;;;;;;11.85;2.55;;;19.20;99.90;;;;;;5000319;28;25065;-76
2021/08/27 11:10:44;;;;;;;12.57;3.58;;;19.20;99.90;;;;;;5011983;28;25132;-74
2021/08/27 11:13:13;;;;;;;12.20;2.50;;;19.50;99.90;;;;;;5013808;28;25073;-77
2021/08/27 11:15:40;;;;;;;10.88;2.97;;;19.50;99.90;;;;;;5012674;28;25076;-73
2021/08/27 11:18:24;;;;;;;10.48;2.97;;;19.30;99.90;;;;;;5012735;28;25071;-80
2021/08/27 11:20:52;;;;;;;8.68;2.83;;;19.20;99.90;;;;;;5017602;28;25076;-77
2021/08/27 11:23:18;;;;;;;15.90;3.28;;;19.10;99.90;;;;;;5027304;28;25100;-76
2021/08/27 11:26:02;;;;;;;5.57;2.50;;;19.00;99.90;;;;;;5025117;28;25062;-77
2021/08/27 11:28:32;;;;;;;4.90;2.10;;;19.40;99.90;;;;;;5010784;28;25092;-77
2021/08/27 11:31:03;;;;;;;7.78;2.10;;;19.60;99.90;;;;;;5016388;28;25084;-78
2021/08/27 11:33:40;;;;;;;8.50;3.15;;;20.00;99.90;;;;;;4993950;28;25108;-79
2021/08/27 11:36:10;;;;;;;12.02;2.92;;;19.90;99.90;;;;;;5010016;28;25146;-78
2021/08/27 11:38:37;;;;;;;9.77;2.58;;;19.90;99.90;;;;;;5014463;28;25112;-77
2021/08/27 11:41:06;;;;;;;13.02;2.95;;;20.10;99.90;;;;;;5014872;28;25065;-82
2021/08/27 11:43:36;;;;;;;5.20;2.05;;;20.30;99.90;;;;;;5010977;28;25080;-79
2021/08/27 11:46:04;;;;;;;13.25;2.47;;;20.40;99.90;;;;;;5015694;28;25064;-77
2021/08/27 11:48:40;;;;;;;7.18;2.03;;;20.20;99.90;;;;;;5012671;28;25065;-77
2021/08/27 11:51:14;;;;;;;8.98;2.40;;;19.80;99.90;;;;;;4993852;28;25050;-79
2021/08/27 11:53:40;;;;;;;12.10;2.78;;;19.70;99.90;;;;;;4992615;28;25060;-78
2021/08/27 11:56:07;;;;;;;7.85;2.13;;;19.90;99.90;;;;;;5015537;28;25085;-78
2021/08/27 11:58:46;;;;;;;10.02;2.20;;;20.20;99.90;;;;;;5012358;28;25028;-78
2021/08/27 12:01:25;;;;;;;11.27;3.15;;;20.40;99.90;;;;;;5009779;28;25137;-76
2021/08/27 12:03:51;;;;;;;6.70;2.13;;;20.30;99.90;;;;;;5012288;28;25133;-78
2021/08/27 12:06:21;;;;;;;5.40;2.17;;;20.80;99.90;;;;;;4998083;28;25072;-77
2021/08/27 12:08:48;;;;;;;14.15;2.70;;;20.30;99.90;;;;;;5012106;28;25068;-80
2021/08/27 12:11:15;;;;;;;6.78;2.72;;;20.50;99.90;;;;;;5014894;28;25064;-80
2021/08/27 12:13:53;;;;;;;12.07;2.90;;;20.20;99.90;;;;;;5016858;28;25165;-81
2021/08/27 12:16:19;;;;;;;14.25;2.70;;;19.90;99.90;;;;;;5020889;28;25109;-78
2021/08/27 12:18:52;;;;;;;7.30;2.30;;;19.70;99.90;;;;;;5021255;28;25083;-78
2021/08/27 12:21:29;;;;;;;7.35;2.63;;;19.80;99.90;;;;;;5015664;28;25138;-79
2021/08/27 12:24:09;;;;;;;6.93;2.40;;;19.50;99.90;;;;;;5016738;28;25058;-76
2021/08/27 12:26:35;;;;;;;6.07;2.42;;;19.40;99.90;;;;;;5012020;28;25088;-78
2021/08/27 12:29:14;;;;;;;11.20;2.58;;;19.40;99.90;;;;;;4997335;28;25108;-79
2021/08/27 12:31:40;;;;;;;5.97;1.88;;;19.50;99.90;;;;;;5011610;28;25161;-79
2021/08/27 12:34:07;;;;;;;4.05;1.77;;;19.40;99.90;;;;;;5013799;28;25136;-79
2021/08/27 12:36:40;;;;;;;13.60;2.95;;;19.20;99.90;;;;;;5009035;28;25070;-72
2021/08/27 12:39:08;;;;;;;7.85;2.30;;;18.60;99.90;;;;;;5010532;28;25086;-77
2021/08/27 12:41:37;;;;;;;7.03;1.60;;;18.30;99.90;;;;;;5014289;28;25083;-77
2021/08/27 12:44:16;;;;;;;11.57;2.10;;;17.80;99.90;;;;;;5015309;28;25086;-78
2021/08/27 12:46:47;;;;;;;7.68;1.50;;;17.40;99.90;;;;;;5016431;28;25059;-78
2021/08/27 12:49:20;;;;;;;7.07;1.73;;;17.00;99.90;;;;;;5015302;28;24758;-78
2021/08/27 12:51:48;;;;;;;4.75;1.65;;;16.90;99.90;;;;;;5013619;28;25064;-78